Droitwich, United Kingdom
Current Conditions -  °F | °C
As of 4:20 AM on Friday 19 Dec 2014 (Local Time) from EGBB Reporting Station
Light Rain Light Rain  
Wind Chill: 44°   Ceiling: 1000
Heat Index: 48°   Visibility: 4mi
Dew Point: 46°   Wind: 9mph
Humidity: 93%   Direction: 300°WNW
Pressure: 29.74"   Gusts: NA
Location:  52.27°N, 2.15°W
Report Text: EGBB 190420Z 30008KT 7000 3000S -RA BKN010 09/08 Q1007
Loading
Personal Weather Stations






























Interactive Weather Map New forecast layout! Learn more

10-Day Weather Forecast

Advertisements
Track Severe Weather on mobile